sensor_id;sensor_type;location;lat;lon;timestamp;P1;durP1;ratioP1;P2;durP2;ratioP2
20124;SDS011;10223;50.862;4.360;2023-08-01T00:00:43;6.30;;;1.60;;
20124;SDS011;10223;50.862;4.360;2023-08-01T00:03:10;4.50;;;1.40;;
20124;SDS011;10223;50.862;4.360;2023-08-01T00:05:38;3.80;;;1.70;;
20124;SDS011;10223;50.862;4.360;2023-08-01T00:08:09;6.57;;;1.63;;
20124;SDS011;10223;50.862;4.360;2023-08-01T00:10:37;4.83;;;1.40;;
20124;SDS011;10223;50.862;4.360;2023-08-01T00:13:05;3.13;;;1.35;;
20124;SDS011;10223;50.862;4.360;2023-08-01T00:15:32;4.55;;;1.77;;
20124;SDS011;10223;50.862;4.360;2023-08-01T00:17:59;3.73;;;1.60;;
20124;SDS011;10223;50.862;4.360;2023-08-01T00:20:25;3.37;;;1.63;;
20124;SDS011;10223;50.862;4.360;2023-08-01T00:22:52;6.00;;;1.80;;
20124;SDS011;10223;50.862;4.360;2023-08-01T00:25:19;5.57;;;1.90;;
20124;SDS011;10223;50.862;4.360;2023-08-01T00:27:46;4.15;;;2.17;;
20124;SDS011;10223;50.862;4.360;2023-08-01T00:30:14;4.47;;;2.03;;
20124;SDS011;10223;50.862;4.360;2023-08-01T00:32:41;3.20;;;1.80;;
20124;SDS011;10223;50.862;4.360;2023-08-01T00:35:08;4.13;;;1.90;;
20124;SDS011;10223;50.862;4.360;2023-08-01T00:37:35;6.47;;;2.17;;
20124;SDS011;10223;50.862;4.360;2023-08-01T00:40:03;4.13;;;1.90;;
20124;SDS011;10223;50.862;4.360;2023-08-01T00:42:31;6.43;;;2.17;;
20124;SDS011;10223;50.862;4.360;2023-08-01T00:44:58;6.80;;;2.60;;
20124;SDS011;10223;50.862;4.360;2023-08-01T00:47:27;4.87;;;2.83;;
20124;SDS011;10223;50.862;4.360;2023-08-01T00:49:53;6.67;;;2.43;;
20124;SDS011;10223;50.862;4.360;2023-08-01T00:52:20;4.97;;;2.17;;
20124;SDS011;10223;50.862;4.360;2023-08-01T00:54:48;5.90;;;2.60;;
20124;SDS011;10223;50.862;4.360;2023-08-01T00:57:15;5.77;;;2.40;;
20124;SDS011;10223;50.862;4.360;2023-08-01T00:59:42;7.33;;;2.93;;
20124;SDS011;10223;50.862;4.360;2023-08-01T01:02:08;10.43;;;2.83;;
20124;SDS011;10223;50.862;4.360;2023-08-01T01:04:38;4.60;;;2.33;;
20124;SDS011;10223;50.862;4.360;2023-08-01T01:07:05;5.30;;;3.00;;
20124;SDS011;10223;50.862;4.360;2023-08-01T01:09:33;7.70;;;2.70;;
20124;SDS011;10223;50.862;4.360;2023-08-01T01:11:59;4.47;;;2.30;;
20124;SDS011;10223;50.862;4.360;2023-08-01T01:14:27;6.57;;;2.30;;
20124;SDS011;10223;50.862;4.360;2023-08-01T01:16:54;6.57;;;2.77;;
20124;SDS011;10223;50.862;4.360;2023-08-01T01:19:21;7.30;;;2.90;;
20124;SDS011;10223;50.862;4.360;2023-08-01T01:21:50;6.93;;;3.13;;
20124;SDS011;10223;50.862;4.360;2023-08-01T01:24:17;8.20;;;3.17;;
20124;SDS011;10223;50.862;4.360;2023-08-01T01:26:45;6.30;;;2.67;;
20124;SDS011;10223;50.862;4.360;2023-08-01T01:29:13;9.03;;;3.43;;
20124;SDS011;10223;50.862;4.360;2023-08-01T01:31:41;7.80;;;3.10;;
20124;SDS011;10223;50.862;4.360;2023-08-01T01:34:09;9.33;;;3.23;;
20124;SDS011;10223;50.862;4.360;2023-08-01T01:36:36;9.03;;;3.60;;
20124;SDS011;10223;50.862;4.360;2023-08-01T01:39:04;8.97;;;3.43;;
20124;SDS011;10223;50.862;4.360;2023-08-01T01:41:31;13.23;;;4.03;;
20124;SDS011;10223;50.862;4.360;2023-08-01T01:43:58;6.87;;;3.23;;
20124;SDS011;10223;50.862;4.360;2023-08-01T01:46:25;8.03;;;3.47;;
20124;SDS011;10223;50.862;4.360;2023-08-01T01:48:51;9.47;;;3.70;;
20124;SDS011;10223;50.862;4.360;2023-08-01T01:51:19;6.37;;;3.63;;
20124;SDS011;10223;50.862;4.360;2023-08-01T01:53:46;10.73;;;3.93;;
20124;SDS011;10223;50.862;4.360;2023-08-01T01:56:14;8.57;;;4.07;;
20124;SDS011;10223;50.862;4.360;2023-08-01T01:58:41;9.10;;;3.97;;
20124;SDS011;10223;50.862;4.360;2023-08-01T02:01:07;8.33;;;4.13;;
20124;SDS011;10223;50.862;4.360;2023-08-01T02:03:34;6.90;;;3.67;;
20124;SDS011;10223;50.862;4.360;2023-08-01T02:06:01;9.17;;;3.77;;
20124;SDS011;10223;50.862;4.360;2023-08-01T02:08:29;10.10;;;4.40;;
20124;SDS011;10223;50.862;4.360;2023-08-01T02:10:56;7.63;;;3.93;;
20124;SDS011;10223;50.862;4.360;2023-08-01T02:13:25;11.40;;;4.40;;
20124;SDS011;10223;50.862;4.360;2023-08-01T02:15:52;12.53;;;5.20;;
20124;SDS011;10223;50.862;4.360;2023-08-01T02:18:19;9.07;;;4.17;;
20124;SDS011;10223;50.862;4.360;2023-08-01T02:20:46;10.13;;;4.40;;
20124;SDS011;10223;50.862;4.360;2023-08-01T02:23:13;8.97;;;4.70;;
20124;SDS011;10223;50.862;4.360;2023-08-01T02:25:40;9.87;;;4.40;;
20124;SDS011;10223;50.862;4.360;2023-08-01T02:28:07;12.57;;;4.57;;
20124;SDS011;10223;50.862;4.360;2023-08-01T02:30:35;10.83;;;4.33;;
20124;SDS011;10223;50.862;4.360;2023-08-01T02:33:02;11.10;;;4.67;;
20124;SDS011;10223;50.862;4.360;2023-08-01T02:35:29;10.87;;;4.83;;
20124;SDS011;10223;50.862;4.360;2023-08-01T02:37:56;8.73;;;4.87;;
20124;SDS011;10223;50.862;4.360;2023-08-01T02:40:23;13.23;;;4.60;;
20124;SDS011;10223;50.862;4.360;2023-08-01T02:42:51;11.83;;;5.07;;
20124;SDS011;10223;50.862;4.360;2023-08-01T02:45:17;9.97;;;5.03;;
20124;SDS011;10223;50.862;4.360;2023-08-01T02:47:46;10.33;;;5.03;;
20124;SDS011;10223;50.862;4.360;2023-08-01T02:50:12;12.67;;;4.83;;
20124;SDS011;10223;50.862;4.360;2023-08-01T02:52:39;11.67;;;5.10;;
20124;SDS011;10223;50.862;4.360;2023-08-01T02:55:06;13.33;;;5.13;;
20124;SDS011;10223;50.862;4.360;2023-08-01T02:57:34;14.17;;;5.13;;
20124;SDS011;10223;50.862;4.360;2023-08-01T03:00:01;15.93;;;5.60;;
20124;SDS011;10223;50.862;4.360;2023-08-01T03:02:30;12.17;;;5.47;;
20124;SDS011;10223;50.862;4.360;2023-08-01T03:04:59;13.00;;;5.23;;
20124;SDS011;10223;50.862;4.360;2023-08-01T03:07:25;9.63;;;5.10;;
20124;SDS011;10223;50.862;4.360;2023-08-01T03:09:52;12.53;;;5.53;;
20124;SDS011;10223;50.862;4.360;2023-08-01T03:12:20;12.27;;;5.50;;
20124;SDS011;10223;50.862;4.360;2023-08-01T03:14:47;12.93;;;5.73;;
20124;SDS011;10223;50.862;4.360;2023-08-01T03:17:13;13.63;;;6.03;;
20124;SDS011;10223;50.862;4.360;2023-08-01T03:19:41;18.67;;;6.10;;
20124;SDS011;10223;50.862;4.360;2023-08-01T03:22:10;13.40;;;5.70;;
20124;SDS011;10223;50.862;4.360;2023-08-01T03:24:37;16.27;;;6.40;;
20124;SDS011;10223;50.862;4.360;2023-08-01T03:27:04;11.00;;;5.47;;
20124;SDS011;10223;50.862;4.360;2023-08-01T03:29:31;14.13;;;6.10;;
20124;SDS011;10223;50.862;4.360;2023-08-01T03:31:58;14.87;;;5.63;;
20124;SDS011;10223;50.862;4.360;2023-08-01T03:34:25;12.37;;;5.50;;
20124;SDS011;10223;50.862;4.360;2023-08-01T03:36:52;15.73;;;5.40;;
20124;SDS011;10223;50.862;4.360;2023-08-01T03:39:20;13.60;;;4.77;;
20124;SDS011;10223;50.862;4.360;2023-08-01T03:41:47;15.60;;;6.17;;
20124;SDS011;10223;50.862;4.360;2023-08-01T03:44:14;13.50;;;5.43;;
20124;SDS011;10223;50.862;4.360;2023-08-01T03:46:42;18.73;;;6.10;;
20124;SDS011;10223;50.862;4.360;2023-08-01T03:49:08;15.07;;;5.57;;
20124;SDS011;10223;50.862;4.360;2023-08-01T03:51:35;13.70;;;5.20;;
20124;SDS011;10223;50.862;4.360;2023-08-01T03:54:02;12.33;;;5.17;;
20124;SDS011;10223;50.862;4.360;2023-08-01T03:56:30;14.83;;;5.83;;
20124;SDS011;10223;50.862;4.360;2023-08-01T03:58:57;14.20;;;5.17;;
20124;SDS011;10223;50.862;4.360;2023-08-01T04:01:24;12.10;;;5.80;;
20124;SDS011;10223;50.862;4.360;2023-08-01T04:03:50;14.70;;;5.93;;
20124;SDS011;10223;50.862;4.360;2023-08-01T04:06:17;15.07;;;5.80;;
20124;SDS011;10223;50.862;4.360;2023-08-01T04:08:44;14.03;;;5.83;;
20124;SDS011;10223;50.862;4.360;2023-08-01T04:11:11;19.17;;;5.87;;
20124;SDS011;10223;50.862;4.360;2023-08-01T04:13:39;17.90;;;5.83;;
20124;SDS011;10223;50.862;4.360;2023-08-01T04:16:07;14.43;;;5.60;;
20124;SDS011;10223;50.862;4.360;2023-08-01T04:18:34;20.03;;;5.90;;
20124;SDS011;10223;50.862;4.360;2023-08-01T04:21:01;17.00;;;6.30;;
20124;SDS011;10223;50.862;4.360;2023-08-01T04:23:28;14.57;;;6.47;;
20124;SDS011;10223;50.862;4.360;2023-08-01T04:25:55;11.60;;;5.33;;
20124;SDS011;10223;50.862;4.360;2023-08-01T04:28:23;14.30;;;6.10;;
20124;SDS011;10223;50.862;4.360;2023-08-01T04:30:51;14.97;;;6.33;;
20124;SDS011;10223;50.862;4.360;2023-08-01T04:33:18;15.93;;;5.60;;
20124;SDS011;10223;50.862;4.360;2023-08-01T04:35:45;15.07;;;6.17;;
20124;SDS011;10223;50.862;4.360;2023-08-01T04:38:14;14.50;;;5.93;;
20124;SDS011;10223;50.862;4.360;2023-08-01T04:40:41;13.20;;;5.53;;
20124;SDS011;10223;50.862;4.360;2023-08-01T04:43:07;14.20;;;6.00;;
20124;SDS011;10223;50.862;4.360;2023-08-01T04:45:35;10.90;;;5.83;;
20124;SDS011;10223;50.862;4.360;2023-08-01T04:48:03;14.67;;;6.03;;
20124;SDS011;10223;50.862;4.360;2023-08-01T04:50:30;18.77;;;6.53;;
20124;SDS011;10223;50.862;4.360;2023-08-01T04:52:57;16.47;;;6.63;;
20124;SDS011;10223;50.862;4.360;2023-08-01T04:55:24;17.40;;;5.93;;
20124;SDS011;10223;50.862;4.360;2023-08-01T04:57:51;18.83;;;6.93;;
20124;SDS011;10223;50.862;4.360;2023-08-01T05:00:18;14.90;;;6.33;;
20124;SDS011;10223;50.862;4.360;2023-08-01T05:02:44;18.53;;;6.73;;
20124;SDS011;10223;50.862;4.360;2023-08-01T05:05:13;15.70;;;6.30;;
20124;SDS011;10223;50.862;4.360;2023-08-01T05:07:41;19.17;;;6.40;;
20124;SDS011;10223;50.862;4.360;2023-08-01T05:10:08;22.27;;;6.70;;
20124;SDS011;10223;50.862;4.360;2023-08-01T05:12:35;20.83;;;7.40;;
20124;SDS011;10223;50.862;4.360;2023-08-01T05:15:03;19.13;;;5.87;;
20124;SDS011;10223;50.862;4.360;2023-08-01T05:17:30;21.87;;;6.20;;
20124;SDS011;10223;50.862;4.360;2023-08-01T05:19:57;19.80;;;5.43;;
20124;SDS011;10223;50.862;4.360;2023-08-01T05:22:25;14.87;;;5.50;;
20124;SDS011;10223;50.862;4.360;2023-08-01T05:24:52;12.47;;;5.73;;
20124;SDS011;10223;50.862;4.360;2023-08-01T05:27:18;15.20;;;5.87;;
20124;SDS011;10223;50.862;4.360;2023-08-01T05:29:45;15.33;;;5.40;;
20124;SDS011;10223;50.862;4.360;2023-08-01T05:32:12;19.97;;;6.10;;
20124;SDS011;10223;50.862;4.360;2023-08-01T05:34:39;12.77;;;5.47;;
20124;SDS011;10223;50.862;4.360;2023-08-01T05:37:06;13.70;;;5.97;;
20124;SDS011;10223;50.862;4.360;2023-08-01T05:39:34;16.13;;;5.27;;
20124;SDS011;10223;50.862;4.360;2023-08-01T05:42:01;12.33;;;5.70;;
20124;SDS011;10223;50.862;4.360;2023-08-01T05:44:28;13.43;;;5.40;;
20124;SDS011;10223;50.862;4.360;2023-08-01T05:46:54;18.27;;;5.83;;
20124;SDS011;10223;50.862;4.360;2023-08-01T05:49:21;21.13;;;7.20;;
20124;SDS011;10223;50.862;4.360;2023-08-01T05:51:48;17.53;;;6.17;;
20124;SDS011;10223;50.862;4.360;2023-08-01T05:54:15;17.23;;;5.47;;
20124;SDS011;10223;50.862;4.360;2023-08-01T05:56:43;13.77;;;5.87;;
20124;SDS011;10223;50.862;4.360;2023-08-01T05:59:10;15.53;;;6.03;;
20124;SDS011;10223;50.862;4.360;2023-08-01T06:01:37;14.90;;;5.40;;
20124;SDS011;10223;50.862;4.360;2023-08-01T06:04:04;17.23;;;5.23;;
20124;SDS011;10223;50.862;4.360;2023-08-01T06:06:30;10.87;;;4.90;;
20124;SDS011;10223;50.862;4.360;2023-08-01T06:08:57;18.17;;;5.90;;
20124;SDS011;10223;50.862;4.360;2023-08-01T06:11:24;14.37;;;5.00;;
20124;SDS011;10223;50.862;4.360;2023-08-01T06:13:53;19.10;;;5.30;;
20124;SDS011;10223;50.862;4.360;2023-08-01T06:16:20;14.87;;;4.60;;
20124;SDS011;10223;50.862;4.360;2023-08-01T06:18:46;15.07;;;4.70;;
20124;SDS011;10223;50.862;4.360;2023-08-01T06:21:13;18.20;;;5.10;;
20124;SDS011;10223;50.862;4.360;2023-08-01T06:23:40;15.53;;;5.17;;
20124;SDS011;10223;50.862;4.360;2023-08-01T06:26:07;20.73;;;5.27;;
20124;SDS011;10223;50.862;4.360;2023-08-01T06:28:34;18.70;;;5.53;;
20124;SDS011;10223;50.862;4.360;2023-08-01T06:31:02;23.03;;;5.23;;
20124;SDS011;10223;50.862;4.360;2023-08-01T06:33:29;14.47;;;4.90;;
20124;SDS011;10223;50.862;4.360;2023-08-01T06:35:56;11.30;;;5.10;;
20124;SDS011;10223;50.862;4.360;2023-08-01T06:38:23;15.80;;;5.40;;
20124;SDS011;10223;50.862;4.360;2023-08-01T06:40:49;13.40;;;4.63;;
20124;SDS011;10223;50.862;4.360;2023-08-01T06:43:16;11.83;;;5.57;;
20124;SDS011;10223;50.862;4.360;2023-08-01T06:45:43;11.53;;;5.13;;
20124;SDS011;10223;50.862;4.360;2023-08-01T06:48:11;19.40;;;5.67;;
20124;SDS011;10223;50.862;4.360;2023-08-01T06:50:38;18.73;;;6.17;;
20124;SDS011;10223;50.862;4.360;2023-08-01T06:53:05;14.20;;;5.27;;
20124;SDS011;10223;50.862;4.360;2023-08-01T06:55:33;11.70;;;4.90;;
20124;SDS011;10223;50.862;4.360;2023-08-01T06:58:00;12.97;;;5.13;;
20124;SDS011;10223;50.862;4.360;2023-08-01T07:00:26;9.97;;;4.60;;
20124;SDS011;10223;50.862;4.360;2023-08-01T07:02:53;20.13;;;4.93;;
20124;SDS011;10223;50.862;4.360;2023-08-01T07:05:22;10.20;;;4.77;;
20124;SDS011;10223;50.862;4.360;2023-08-01T07:07:49;13.63;;;4.70;;
20124;SDS011;10223;50.862;4.360;2023-08-01T07:10:16;16.40;;;4.97;;
20124;SDS011;10223;50.862;4.360;2023-08-01T07:12:43;15.63;;;5.40;;
20124;SDS011;10223;50.862;4.360;2023-08-01T07:15:10;18.57;;;5.53;;
20124;SDS011;10223;50.862;4.360;2023-08-01T07:17:37;19.33;;;4.90;;
20124;SDS011;10223;50.862;4.360;2023-08-01T07:20:04;13.30;;;4.63;;
20124;SDS011;10223;50.862;4.360;2023-08-01T07:22:32;15.23;;;4.87;;
20124;SDS011;10223;50.862;4.360;2023-08-01T07:24:59;13.65;;;4.90;;
20124;SDS011;10223;50.862;4.360;2023-08-01T07:27:26;15.23;;;4.57;;
20124;SDS011;10223;50.862;4.360;2023-08-01T07:29:53;15.73;;;4.85;;
20124;SDS011;10223;50.862;4.360;2023-08-01T07:32:19;16.88;;;4.95;;
20124;SDS011;10223;50.862;4.360;2023-08-01T07:34:46;12.82;;;4.50;;
20124;SDS011;10223;50.862;4.360;2023-08-01T07:37:13;15.55;;;4.82;;
20124;SDS011;10223;50.862;4.360;2023-08-01T07:39:41;10.60;;;4.32;;
20124;SDS011;10223;50.862;4.360;2023-08-01T07:42:08;15.07;;;4.50;;
20124;SDS011;10223;50.862;4.360;2023-08-01T07:44:35;9.77;;;4.20;;
20124;SDS011;10223;50.862;4.360;2023-08-01T07:47:02;12.90;;;4.53;;
20124;SDS011;10223;50.862;4.360;2023-08-01T07:49:29;9.77;;;4.57;;
20124;SDS011;10223;50.862;4.360;2023-08-01T07:51:56;12.75;;;5.18;;
20124;SDS011;10223;50.862;4.360;2023-08-01T07:54:23;18.92;;;4.75;;
20124;SDS011;10223;50.862;4.360;2023-08-01T07:56:51;11.95;;;4.18;;
20124;SDS011;10223;50.862;4.360;2023-08-01T07:59:18;10.88;;;4.43;;
20124;SDS011;10223;50.862;4.360;2023-08-01T08:01:45;12.38;;;4.25;;
20124;SDS011;10223;50.862;4.360;2023-08-01T08:04:12;10.07;;;3.92;;
20124;SDS011;10223;50.862;4.360;2023-08-01T08:06:39;15.80;;;4.13;;
20124;SDS011;10223;50.862;4.360;2023-08-01T08:09:06;10.68;;;4.15;;
20124;SDS011;10223;50.862;4.360;2023-08-01T08:11:33;14.18;;;4.50;;
20124;SDS011;10223;50.862;4.360;2023-08-01T08:14:01;20.38;;;4.05;;
20124;SDS011;10223;50.862;4.360;2023-08-01T08:16:28;17.60;;;4.22;;
20124;SDS011;10223;50.862;4.360;2023-08-01T08:18:55;9.70;;;3.30;;
20124;SDS011;10223;50.862;4.360;2023-08-01T08:21:21;10.80;;;3.33;;
20124;SDS011;10223;50.862;4.360;2023-08-01T08:23:48;13.63;;;3.75;;
20124;SDS011;10223;50.862;4.360;2023-08-01T08:26:15;13.60;;;3.58;;
20124;SDS011;10223;50.862;4.360;2023-08-01T08:28:42;12.38;;;3.50;;
20124;SDS011;10223;50.862;4.360;2023-08-01T08:31:10;9.93;;;3.00;;
20124;SDS011;10223;50.862;4.360;2023-08-01T08:33:37;11.98;;;4.30;;
20124;SDS011;10223;50.862;4.360;2023-08-01T08:36:04;8.45;;;3.20;;
20124;SDS011;10223;50.862;4.360;2023-08-01T08:38:31;6.75;;;2.83;;
20124;SDS011;10223;50.862;4.360;2023-08-01T08:41:01;12.73;;;3.58;;
20124;SDS011;10223;50.862;4.360;2023-08-01T08:43:34;11.02;;;3.00;;
20124;SDS011;10223;50.862;4.360;2023-08-01T08:46:02;10.77;;;3.33;;
20124;SDS011;10223;50.862;4.360;2023-08-01T08:48:31;9.18;;;2.55;;
20124;SDS011;10223;50.862;4.360;2023-08-01T08:50:59;12.82;;;2.72;;
20124;SDS011;10223;50.862;4.360;2023-08-01T08:53:29;12.95;;;3.20;;
20124;SDS011;10223;50.862;4.360;2023-08-01T08:55:57;7.43;;;2.53;;
20124;SDS011;10223;50.862;4.360;2023-08-01T08:58:25;9.07;;;2.53;;
20124;SDS011;10223;50.862;4.360;2023-08-01T09:00:52;10.63;;;2.88;;
20124;SDS011;10223;50.862;4.360;2023-08-01T09:03:20;8.90;;;2.20;;
20124;SDS011;10223;50.862;4.360;2023-08-01T09:05:50;7.20;;;2.67;;
20124;SDS011;10223;50.862;4.360;2023-08-01T09:08:21;11.32;;;2.42;;
20124;SDS011;10223;50.862;4.360;2023-08-01T09:10:50;6.93;;;2.35;;
20124;SDS011;10223;50.862;4.360;2023-08-01T09:13:17;15.38;;;2.13;;
20124;SDS011;10223;50.862;4.360;2023-08-01T09:15:44;12.18;;;2.38;;
20124;SDS011;10223;50.862;4.360;2023-08-01T09:18:13;9.02;;;2.70;;
20124;SDS011;10223;50.862;4.360;2023-08-01T09:20:42;9.70;;;2.65;;
20124;SDS011;10223;50.862;4.360;2023-08-01T09:23:11;7.57;;;2.45;;
20124;SDS011;10223;50.862;4.360;2023-08-01T09:25:38;6.45;;;2.25;;
20124;SDS011;10223;50.862;4.360;2023-08-01T09:28:14;8.23;;;2.40;;
20124;SDS011;10223;50.862;4.360;2023-08-01T09:30:46;13.75;;;2.58;;
20124;SDS011;10223;50.862;4.360;2023-08-01T09:33:14;14.10;;;2.80;;
20124;SDS011;10223;50.862;4.360;2023-08-01T09:35:41;9.82;;;2.53;;
20124;SDS011;10223;50.862;4.360;2023-08-01T09:38:10;7.45;;;2.10;;
20124;SDS011;10223;50.862;4.360;2023-08-01T09:40:39;5.90;;;2.08;;
20124;SDS011;10223;50.862;4.360;2023-08-01T09:43:06;4.85;;;1.75;;
20124;SDS011;10223;50.862;4.360;2023-08-01T09:45:33;7.63;;;2.17;;
20124;SDS011;10223;50.862;4.360;2023-08-01T09:48:00;8.00;;;2.20;;
20124;SDS011;10223;50.862;4.360;2023-08-01T09:50:27;6.68;;;2.55;;
20124;SDS011;10223;50.862;4.360;2023-08-01T09:52:54;7.40;;;2.50;;
20124;SDS011;10223;50.862;4.360;2023-08-01T09:55:25;8.43;;;2.38;;
20124;SDS011;10223;50.862;4.360;2023-08-01T09:57:56;8.55;;;2.25;;
20124;SDS011;10223;50.862;4.360;2023-08-01T10:00:25;4.35;;;2.05;;
20124;SDS011;10223;50.862;4.360;2023-08-01T10:02:52;7.72;;;2.25;;
20124;SDS011;10223;50.862;4.360;2023-08-01T10:05:19;6.30;;;2.45;;
20124;SDS011;10223;50.862;4.360;2023-08-01T10:07:47;9.80;;;2.35;;
20124;SDS011;10223;50.862;4.360;2023-08-01T10:10:16;9.48;;;2.47;;
20124;SDS011;10223;50.862;4.360;2023-08-01T10:12:46;10.68;;;2.58;;
20124;SDS011;10223;50.862;4.360;2023-08-01T10:15:14;9.82;;;1.95;;
20124;SDS011;10223;50.862;4.360;2023-08-01T10:17:44;7.13;;;2.10;;
20124;SDS011;10223;50.862;4.360;2023-08-01T10:20:11;7.18;;;2.30;;
20124;SDS011;10223;50.862;4.360;2023-08-01T10:22:40;6.78;;;2.20;;
20124;SDS011;10223;50.862;4.360;2023-08-01T10:25:08;7.75;;;2.42;;
20124;SDS011;10223;50.862;4.360;2023-08-01T10:27:36;8.32;;;2.50;;
20124;SDS011;10223;50.862;4.360;2023-08-01T10:30:05;6.05;;;1.80;;
20124;SDS011;10223;50.862;4.360;2023-08-01T10:32:33;5.78;;;1.70;;
20124;SDS011;10223;50.862;4.360;2023-08-01T10:35:01;6.60;;;1.55;;
20124;SDS011;10223;50.862;4.360;2023-08-01T10:37:38;6.68;;;1.75;;
20124;SDS011;10223;50.862;4.360;2023-08-01T10:40:07;8.80;;;1.77;;
20124;SDS011;10223;50.862;4.360;2023-08-01T10:42:37;7.78;;;2.00;;
20124;SDS011;10223;50.862;4.360;2023-08-01T10:45:19;5.82;;;1.70;;
20124;SDS011;10223;50.862;4.360;2023-08-01T10:47:46;6.07;;;2.03;;
20124;SDS011;10223;50.862;4.360;2023-08-01T10:50:14;7.15;;;2.03;;
20124;SDS011;10223;50.862;4.360;2023-08-01T10:52:42;5.47;;;1.73;;
20124;SDS011;10223;50.862;4.360;2023-08-01T10:55:09;5.75;;;1.70;;
20124;SDS011;10223;50.862;4.360;2023-08-01T10:57:38;12.85;;;2.10;;
20124;SDS011;10223;50.862;4.360;2023-08-01T11:00:05;11.13;;;1.60;;
20124;SDS011;10223;50.862;4.360;2023-08-01T11:02:36;10.30;;;2.05;;
20124;SDS011;10223;50.862;4.360;2023-08-01T11:05:03;7.18;;;1.75;;
20124;SDS011;10223;50.862;4.360;2023-08-01T11:07:31;6.95;;;1.55;;
20124;SDS011;10223;50.862;4.360;2023-08-01T11:10:03;4.28;;;1.73;;
20124;SDS011;10223;50.862;4.360;2023-08-01T11:12:31;9.07;;;1.70;;
20124;SDS011;10223;50.862;4.360;2023-08-01T11:15:00;7.43;;;2.30;;
20124;SDS011;10223;50.862;4.360;2023-08-01T11:17:28;9.93;;;1.70;;
20124;SDS011;10223;50.862;4.360;2023-08-01T11:20:01;6.40;;;1.58;;
20124;SDS011;10223;50.862;4.360;2023-08-01T11:22:30;6.80;;;1.98;;
20124;SDS011;10223;50.862;4.360;2023-08-01T11:24:57;6.85;;;1.80;;
20124;SDS011;10223;50.862;4.360;2023-08-01T11:27:24;5.07;;;1.45;;
20124;SDS011;10223;50.862;4.360;2023-08-01T11:29:51;5.57;;;1.55;;
20124;SDS011;10223;50.862;4.360;2023-08-01T11:32:17;11.38;;;1.90;;
20124;SDS011;10223;50.862;4.360;2023-08-01T11:34:45;12.63;;;2.28;;
20124;SDS011;10223;50.862;4.360;2023-08-01T11:37:14;6.70;;;1.77;;
20124;SDS011;10223;50.862;4.360;2023-08-01T11:39:41;5.25;;;1.88;;
20124;SDS011;10223;50.862;4.360;2023-08-01T11:42:13;6.75;;;1.40;;
20124;SDS011;10223;50.862;4.360;2023-08-01T11:44:41;8.48;;;1.70;;
20124;SDS011;10223;50.862;4.360;2023-08-01T11:47:10;6.05;;;1.70;;
20124;SDS011;10223;50.862;4.360;2023-08-01T11:49:38;4.72;;;1.60;;
20124;SDS011;10223;50.862;4.360;2023-08-01T11:52:05;5.20;;;1.17;;
20124;SDS011;10223;50.862;4.360;2023-08-01T11:54:44;10.50;;;1.70;;
20124;SDS011;10223;50.862;4.360;2023-08-01T11:57:11;6.38;;;1.42;;
20124;SDS011;10223;50.862;4.360;2023-08-01T11:59:45;3.60;;;1.20;;
20124;SDS011;10223;50.862;4.360;2023-08-01T12:02:20;7.00;;;1.73;;
20124;SDS011;10223;50.862;4.360;2023-08-01T12:04:47;9.60;;;1.80;;
20124;SDS011;10223;50.862;4.360;2023-08-01T12:07:14;7.45;;;1.60;;
20124;SDS011;10223;50.862;4.360;2023-08-01T12:09:42;8.75;;;2.45;;
20124;SDS011;10223;50.862;4.360;2023-08-01T12:12:10;5.70;;;1.67;;
20124;SDS011;10223;50.862;4.360;2023-08-01T12:14:40;7.18;;;1.98;;
20124;SDS011;10223;50.862;4.360;2023-08-01T12:17:07;7.45;;;1.60;;
20124;SDS011;10223;50.862;4.360;2023-08-01T12:19:34;8.13;;;1.58;;
20124;SDS011;10223;50.862;4.360;2023-08-01T12:22:01;7.93;;;2.10;;
20124;SDS011;10223;50.862;4.360;2023-08-01T12:24:27;6.10;;;1.50;;
20124;SDS011;10223;50.862;4.360;2023-08-01T12:26:54;4.47;;;1.38;;
20124;SDS011;10223;50.862;4.360;2023-08-01T12:29:23;5.50;;;1.42;;
20124;SDS011;10223;50.862;4.360;2023-08-01T12:31:49;7.90;;;1.60;;
20124;SDS011;10223;50.862;4.360;2023-08-01T12:34:16;8.18;;;1.50;;
20124;SDS011;10223;50.862;4.360;2023-08-01T12:36:43;8.40;;;1.90;;
20124;SDS011;10223;50.862;4.360;2023-08-01T12:39:10;7.13;;;1.83;;
20124;SDS011;10223;50.862;4.360;2023-08-01T12:41:37;5.28;;;1.40;;
20124;SDS011;10223;50.862;4.360;2023-08-01T12:44:04;6.57;;;1.40;;
20124;SDS011;10223;50.862;4.360;2023-08-01T12:46:32;8.38;;;1.27;;
20124;SDS011;10223;50.862;4.360;2023-08-01T12:48:59;4.75;;;1.35;;
20124;SDS011;10223;50.862;4.360;2023-08-01T12:51:27;4.20;;;1.23;;
20124;SDS011;10223;50.862;4.360;2023-08-01T12:53:54;6.97;;;1.70;;
20124;SDS011;10223;50.862;4.360;2023-08-01T12:56:21;5.57;;;1.55;;
20124;SDS011;10223;50.862;4.360;2023-08-01T12:58:47;5.57;;;1.30;;
20124;SDS011;10223;50.862;4.360;2023-08-01T13:01:14;10.80;;;2.25;;
20124;SDS011;10223;50.862;4.360;2023-08-01T13:03:42;3.55;;;1.15;;
20124;SDS011;10223;50.862;4.360;2023-08-01T13:06:10;9.57;;;1.60;;
20124;SDS011;10223;50.862;4.360;2023-08-01T13:08:38;6.88;;;1.75;;
20124;SDS011;10223;50.862;4.360;2023-08-01T13:11:11;4.35;;;1.48;;
20124;SDS011;10223;50.862;4.360;2023-08-01T13:13:39;5.25;;;1.67;;
20124;SDS011;10223;50.862;4.360;2023-08-01T13:16:06;4.10;;;1.10;;
20124;SDS011;10223;50.862;4.360;2023-08-01T13:18:34;3.83;;;1.13;;
20124;SDS011;10223;50.862;4.360;2023-08-01T13:21:03;7.38;;;1.73;;
20124;SDS011;10223;50.862;4.360;2023-08-01T13:23:30;4.85;;;1.35;;
20124;SDS011;10223;50.862;4.360;2023-08-01T13:25:57;6.45;;;1.52;;
20124;SDS011;10223;50.862;4.360;2023-08-01T13:28:27;9.65;;;1.80;;
20124;SDS011;10223;50.862;4.360;2023-08-01T13:30:53;4.63;;;1.50;;
20124;SDS011;10223;50.862;4.360;2023-08-01T13:33:20;6.75;;;1.73;;
20124;SDS011;10223;50.862;4.360;2023-08-01T13:35:50;7.55;;;1.85;;
20124;SDS011;10223;50.862;4.360;2023-08-01T13:38:19;8.32;;;1.70;;
20124;SDS011;10223;50.862;4.360;2023-08-01T13:40:45;5.60;;;1.70;;
20124;SDS011;10223;50.862;4.360;2023-08-01T13:43:12;8.73;;;1.80;;
20124;SDS011;10223;50.862;4.360;2023-08-01T13:45:39;6.85;;;1.73;;
20124;SDS011;10223;50.862;4.360;2023-08-01T13:48:06;10.85;;;3.53;;
20124;SDS011;10223;50.862;4.360;2023-08-01T13:50:33;6.63;;;1.95;;
20124;SDS011;10223;50.862;4.360;2023-08-01T13:52:59;4.63;;;1.30;;
20124;SDS011;10223;50.862;4.360;2023-08-01T13:55:28;5.30;;;1.55;;
20124;SDS011;10223;50.862;4.360;2023-08-01T13:57:55;4.70;;;1.48;;
20124;SDS011;10223;50.862;4.360;2023-08-01T14:00:22;7.82;;;2.03;;
20124;SDS011;10223;50.862;4.360;2023-08-01T14:02:49;8.18;;;2.30;;
20124;SDS011;10223;50.862;4.360;2023-08-01T14:05:17;5.55;;;1.80;;
20124;SDS011;10223;50.862;4.360;2023-08-01T14:07:44;6.60;;;2.20;;
20124;SDS011;10223;50.862;4.360;2023-08-01T14:10:11;4.28;;;1.70;;
20124;SDS011;10223;50.862;4.360;2023-08-01T14:12:41;4.07;;;1.23;;
20124;SDS011;10223;50.862;4.360;2023-08-01T14:15:08;5.38;;;1.17;;
20124;SDS011;10223;50.862;4.360;2023-08-01T14:17:35;6.85;;;1.60;;
20124;SDS011;10223;50.862;4.360;2023-08-01T14:20:02;9.60;;;1.60;;
20124;SDS011;10223;50.862;4.360;2023-08-01T14:22:30;7.35;;;1.45;;
20124;SDS011;10223;50.862;4.360;2023-08-01T14:24:57;4.43;;;1.30;;
20124;SDS011;10223;50.862;4.360;2023-08-01T14:27:23;4.97;;;1.38;;
20124;SDS011;10223;50.862;4.360;2023-08-01T14:29:52;6.97;;;1.20;;
20124;SDS011;10223;50.862;4.360;2023-08-01T14:32:19;4.47;;;1.10;;
20124;SDS011;10223;50.862;4.360;2023-08-01T14:34:46;6.75;;;1.20;;
20124;SDS011;10223;50.862;4.360;2023-08-01T14:37:13;3.25;;;1.30;;
20124;SDS011;10223;50.862;4.360;2023-08-01T14:39:40;4.82;;;1.50;;
20124;SDS011;10223;50.862;4.360;2023-08-01T14:42:06;4.57;;;1.17;;